sensor_id;sensor_type;location;lat;lon;timestamp;temperature;humidity
8896;DHT22;4484;48.928;10.066;2023-04-30T00:02:16;9.00;99.90
8896;DHT22;4484;48.928;10.066;2023-04-30T00:04:43;9.00;99.90
8896;DHT22;4484;48.928;10.066;2023-04-30T00:07:10;9.00;99.90
8896;DHT22;4484;48.928;10.066;2023-04-30T00:09:37;9.00;99.90
8896;DHT22;4484;48.928;10.066;2023-04-30T00:12:04;9.00;99.90
8896;DHT22;4484;48.928;10.066;2023-04-30T00:14:31;9.00;99.90
8896;DHT22;4484;48.928;10.066;2023-04-30T00:16:58;9.00;99.90
8896;DHT22;4484;48.928;10.066;2023-04-30T00:19:25;9.00;99.90
8896;DHT22;4484;48.928;10.066;2023-04-30T00:21:51;9.00;99.90
8896;DHT22;4484;48.928;10.066;2023-04-30T00:24:18;9.00;99.90
8896;DHT22;4484;48.928;10.066;2023-04-30T00:26:45;9.00;99.90
8896;DHT22;4484;48.928;10.066;2023-04-30T00:29:12;8.90;99.90
8896;DHT22;4484;48.928;10.066;2023-04-30T00:31:39;8.90;99.90
8896;DHT22;4484;48.928;10.066;2023-04-30T00:34:07;8.90;99.90
8896;DHT22;4484;48.928;10.066;2023-04-30T00:36:33;8.90;99.90
8896;DHT22;4484;48.928;10.066;2023-04-30T00:39:00;8.90;99.90
8896;DHT22;4484;48.928;10.066;2023-04-30T00:41:28;8.90;99.90
8896;DHT22;4484;48.928;10.066;2023-04-30T00:43:56;8.80;99.90
8896;DHT22;4484;48.928;10.066;2023-04-30T00:46:22;8.80;99.90
8896;DHT22;4484;48.928;10.066;2023-04-30T00:48:49;8.80;99.90
8896;DHT22;4484;48.928;10.066;2023-04-30T00:51:16;8.80;99.90
8896;DHT22;4484;48.928;10.066;2023-04-30T00:53:43;8.80;99.90
8896;DHT22;4484;48.928;10.066;2023-04-30T00:56:10;8.80;99.90
8896;DHT22;4484;48.928;10.066;2023-04-30T00:58:39;8.70;99.90
8896;DHT22;4484;48.928;10.066;2023-04-30T01:01:06;8.70;99.90
8896;DHT22;4484;48.928;10.066;2023-04-30T01:03:33;8.80;99.90
8896;DHT22;4484;48.928;10.066;2023-04-30T01:06:02;8.70;99.90
8896;DHT22;4484;48.928;10.066;2023-04-30T01:08:30;8.70;99.90
8896;DHT22;4484;48.928;10.066;2023-04-30T01:14:27;8.70;99.90
8896;DHT22;4484;48.928;10.066;2023-04-30T01:17:07;8.70;99.90
8896;DHT22;4484;48.928;10.066;2023-04-30T01:19:41;8.70;99.90
8896;DHT22;4484;48.928;10.066;2023-04-30T01:22:13;8.70;99.90
8896;DHT22;4484;48.928;10.066;2023-04-30T01:25:06;8.70;99.90
8896;DHT22;4484;48.928;10.066;2023-04-30T01:28:03;8.70;99.90
8896;DHT22;4484;48.928;10.066;2023-04-30T01:30:32;8.70;99.90
8896;DHT22;4484;48.928;10.066;2023-04-30T01:33:00;8.70;99.90
8896;DHT22;4484;48.928;10.066;2023-04-30T01:35:56;8.70;99.90
8896;DHT22;4484;48.928;10.066;2023-04-30T01:38:32;8.70;99.90
8896;DHT22;4484;48.928;10.066;2023-04-30T01:43:54;8.70;99.90
8896;DHT22;4484;48.928;10.066;2023-04-30T01:46:28;8.60;99.90
8896;DHT22;4484;48.928;10.066;2023-04-30T01:49:18;8.60;99.90
8896;DHT22;4484;48.928;10.066;2023-04-30T01:51:55;8.60;99.90
8896;DHT22;4484;48.928;10.066;2023-04-30T01:54:31;8.60;99.90
8896;DHT22;4484;48.928;10.066;2023-04-30T01:57:05;8.60;99.90
8896;DHT22;4484;48.928;10.066;2023-04-30T01:59:34;8.60;99.90
8896;DHT22;4484;48.928;10.066;2023-04-30T02:02:04;8.60;99.90
8896;DHT22;4484;48.928;10.066;2023-04-30T02:04:31;8.60;99.90
8896;DHT22;4484;48.928;10.066;2023-04-30T02:06:59;8.60;99.90
8896;DHT22;4484;48.928;10.066;2023-04-30T02:09:26;8.50;99.90
8896;DHT22;4484;48.928;10.066;2023-04-30T02:11:53;8.60;99.90
8896;DHT22;4484;48.928;10.066;2023-04-30T02:14:20;8.60;99.90
8896;DHT22;4484;48.928;10.066;2023-04-30T02:16:51;8.50;99.90
8896;DHT22;4484;48.928;10.066;2023-04-30T02:19:18;8.50;99.90
8896;DHT22;4484;48.928;10.066;2023-04-30T02:21:45;8.50;99.90
8896;DHT22;4484;48.928;10.066;2023-04-30T02:24:12;8.50;99.90
8896;DHT22;4484;48.928;10.066;2023-04-30T02:26:38;8.50;99.90
8896;DHT22;4484;48.928;10.066;2023-04-30T02:29:05;8.40;99.90
8896;DHT22;4484;48.928;10.066;2023-04-30T02:31:32;8.50;99.90
8896;DHT22;4484;48.928;10.066;2023-04-30T02:33:59;8.40;99.90
8896;DHT22;4484;48.928;10.066;2023-04-30T02:36:25;8.40;99.90
8896;DHT22;4484;48.928;10.066;2023-04-30T02:38:52;8.40;99.90
8896;DHT22;4484;48.928;10.066;2023-04-30T02:41:19;8.40;99.90
8896;DHT22;4484;48.928;10.066;2023-04-30T02:43:47;8.40;99.90
8896;DHT22;4484;48.928;10.066;2023-04-30T02:46:14;8.40;99.90
8896;DHT22;4484;48.928;10.066;2023-04-30T02:48:40;8.40;99.90
8896;DHT22;4484;48.928;10.066;2023-04-30T02:51:07;8.40;99.90
8896;DHT22;4484;48.928;10.066;2023-04-30T02:53:34;8.30;99.90
8896;DHT22;4484;48.928;10.066;2023-04-30T02:56:01;8.30;99.90
8896;DHT22;4484;48.928;10.066;2023-04-30T02:58:28;8.30;99.90
8896;DHT22;4484;48.928;10.066;2023-04-30T03:00:55;8.30;99.90
8896;DHT22;4484;48.928;10.066;2023-04-30T03:03:22;8.30;99.90
8896;DHT22;4484;48.928;10.066;2023-04-30T03:05:49;8.30;99.90
8896;DHT22;4484;48.928;10.066;2023-04-30T03:08:16;8.30;99.90
8896;DHT22;4484;48.928;10.066;2023-04-30T03:10:42;8.30;99.90
8896;DHT22;4484;48.928;10.066;2023-04-30T03:13:09;8.30;99.90
8896;DHT22;4484;48.928;10.066;2023-04-30T03:15:36;8.30;99.90
8896;DHT22;4484;48.928;10.066;2023-04-30T03:18:03;8.30;99.90
8896;DHT22;4484;48.928;10.066;2023-04-30T03:20:30;8.20;99.90
8896;DHT22;4484;48.928;10.066;2023-04-30T03:22:57;8.20;99.90
8896;DHT22;4484;48.928;10.066;2023-04-30T03:25:24;8.20;99.90
8896;DHT22;4484;48.928;10.066;2023-04-30T03:27:51;8.20;99.90
8896;DHT22;4484;48.928;10.066;2023-04-30T03:30:18;8.20;99.90
8896;DHT22;4484;48.928;10.066;2023-04-30T03:32:45;8.20;99.90
8896;DHT22;4484;48.928;10.066;2023-04-30T03:35:11;8.20;99.90
8896;DHT22;4484;48.928;10.066;2023-04-30T03:37:38;8.20;99.90
8896;DHT22;4484;48.928;10.066;2023-04-30T03:40:06;8.10;99.90
8896;DHT22;4484;48.928;10.066;2023-04-30T03:42:33;8.20;99.90
8896;DHT22;4484;48.928;10.066;2023-04-30T03:44:59;8.20;99.90
8896;DHT22;4484;48.928;10.066;2023-04-30T03:47:26;8.20;99.90
8896;DHT22;4484;48.928;10.066;2023-04-30T03:49:53;8.10;99.90
8896;DHT22;4484;48.928;10.066;2023-04-30T03:52:22;8.10;99.90
8896;DHT22;4484;48.928;10.066;2023-04-30T03:54:49;8.10;99.90
8896;DHT22;4484;48.928;10.066;2023-04-30T03:57:17;8.10;99.90
8896;DHT22;4484;48.928;10.066;2023-04-30T03:59:44;8.10;99.90
8896;DHT22;4484;48.928;10.066;2023-04-30T04:02:11;8.10;99.90
8896;DHT22;4484;48.928;10.066;2023-04-30T04:04:38;8.10;99.90
8896;DHT22;4484;48.928;10.066;2023-04-30T04:07:05;8.10;99.90
8896;DHT22;4484;48.928;10.066;2023-04-30T04:09:33;8.10;99.90
8896;DHT22;4484;48.928;10.066;2023-04-30T04:12:02;8.10;99.90
8896;DHT22;4484;48.928;10.066;2023-04-30T04:14:29;8.10;99.90
8896;DHT22;4484;48.928;10.066;2023-04-30T04:16:56;8.10;99.90
8896;DHT22;4484;48.928;10.066;2023-04-30T04:19:26;8.10;99.90
8896;DHT22;4484;48.928;10.066;2023-04-30T04:21:53;8.10;99.90
8896;DHT22;4484;48.928;10.066;2023-04-30T04:24:20;8.10;99.90
8896;DHT22;4484;48.928;10.066;2023-04-30T04:26:46;8.00;99.90
8896;DHT22;4484;48.928;10.066;2023-04-30T04:29:13;8.00;99.90
8896;DHT22;4484;48.928;10.066;2023-04-30T04:31:41;8.10;99.90
8896;DHT22;4484;48.928;10.066;2023-04-30T04:34:09;8.10;99.90
8896;DHT22;4484;48.928;10.066;2023-04-30T04:36:37;8.00;99.90
8896;DHT22;4484;48.928;10.066;2023-04-30T04:39:04;8.10;99.90
8896;DHT22;4484;48.928;10.066;2023-04-30T04:41:32;8.10;99.90
8896;DHT22;4484;48.928;10.066;2023-04-30T04:43:59;8.10;99.90
8896;DHT22;4484;48.928;10.066;2023-04-30T04:46:29;8.10;99.90
8896;DHT22;4484;48.928;10.066;2023-04-30T04:48:57;8.20;99.90
8896;DHT22;4484;48.928;10.066;2023-04-30T04:51:24;8.20;99.90
8896;DHT22;4484;48.928;10.066;2023-04-30T04:53:50;8.20;99.90
8896;DHT22;4484;48.928;10.066;2023-04-30T04:56:18;8.20;99.90
8896;DHT22;4484;48.928;10.066;2023-04-30T04:58:45;8.30;99.90
8896;DHT22;4484;48.928;10.066;2023-04-30T05:01:12;8.30;99.90
8896;DHT22;4484;48.928;10.066;2023-04-30T05:03:40;8.40;99.90
8896;DHT22;4484;48.928;10.066;2023-04-30T05:06:07;8.40;99.90
8896;DHT22;4484;48.928;10.066;2023-04-30T05:08:34;8.40;99.90
8896;DHT22;4484;48.928;10.066;2023-04-30T05:11:01;8.50;99.90
8896;DHT22;4484;48.928;10.066;2023-04-30T05:13:28;8.60;99.90
8896;DHT22;4484;48.928;10.066;2023-04-30T05:15:56;8.60;99.90
8896;DHT22;4484;48.928;10.066;2023-04-30T05:18:23;8.60;99.90
8896;DHT22;4484;48.928;10.066;2023-04-30T05:20:50;8.70;99.90
8896;DHT22;4484;48.928;10.066;2023-04-30T05:23:17;8.70;99.90
8896;DHT22;4484;48.928;10.066;2023-04-30T05:25:44;8.80;99.90
8896;DHT22;4484;48.928;10.066;2023-04-30T05:28:11;8.80;99.90
8896;DHT22;4484;48.928;10.066;2023-04-30T05:30:38;8.90;99.90
8896;DHT22;4484;48.928;10.066;2023-04-30T05:33:04;8.90;99.90
8896;DHT22;4484;48.928;10.066;2023-04-30T05:35:32;9.00;99.90
8896;DHT22;4484;48.928;10.066;2023-04-30T05:38:02;9.10;99.90
8896;DHT22;4484;48.928;10.066;2023-04-30T05:40:29;9.10;99.90
8896;DHT22;4484;48.928;10.066;2023-04-30T05:42:56;9.20;99.90
8896;DHT22;4484;48.928;10.066;2023-04-30T05:45:23;9.20;99.90
8896;DHT22;4484;48.928;10.066;2023-04-30T05:47:50;9.30;99.90
8896;DHT22;4484;48.928;10.066;2023-04-30T05:50:17;9.30;99.90
8896;DHT22;4484;48.928;10.066;2023-04-30T05:52:44;9.40;99.90
8896;DHT22;4484;48.928;10.066;2023-04-30T05:55:10;9.50;99.90
8896;DHT22;4484;48.928;10.066;2023-04-30T05:57:37;9.50;99.90
8896;DHT22;4484;48.928;10.066;2023-04-30T06:00:05;9.60;99.90
8896;DHT22;4484;48.928;10.066;2023-04-30T06:02:38;9.70;99.90
8896;DHT22;4484;48.928;10.066;2023-04-30T06:05:07;9.70;99.90
8896;DHT22;4484;48.928;10.066;2023-04-30T06:07:34;9.80;99.90
8896;DHT22;4484;48.928;10.066;2023-04-30T06:10:01;9.90;99.90
8896;DHT22;4484;48.928;10.066;2023-04-30T06:12:28;10.00;99.90
8896;DHT22;4484;48.928;10.066;2023-04-30T06:14:55;10.20;99.90
8896;DHT22;4484;48.928;10.066;2023-04-30T06:17:22;10.30;99.90
8896;DHT22;4484;48.928;10.066;2023-04-30T06:19:49;10.40;99.90
8896;DHT22;4484;48.928;10.066;2023-04-30T06:22:16;10.50;99.90
8896;DHT22;4484;48.928;10.066;2023-04-30T06:24:43;10.60;99.90
8896;DHT22;4484;48.928;10.066;2023-04-30T06:27:11;10.60;99.90
8896;DHT22;4484;48.928;10.066;2023-04-30T06:29:37;10.70;99.90
8896;DHT22;4484;48.928;10.066;2023-04-30T06:32:04;10.90;99.90
8896;DHT22;4484;48.928;10.066;2023-04-30T06:34:34;11.30;99.90
8896;DHT22;4484;48.928;10.066;2023-04-30T06:37:01;11.60;99.90
8896;DHT22;4484;48.928;10.066;2023-04-30T06:39:27;11.70;99.90
8896;DHT22;4484;48.928;10.066;2023-04-30T06:41:54;11.90;99.90
8896;DHT22;4484;48.928;10.066;2023-04-30T06:44:21;11.90;99.90
8896;DHT22;4484;48.928;10.066;2023-04-30T06:46:48;11.90;99.90
8896;DHT22;4484;48.928;10.066;2023-04-30T06:49:15;12.10;99.90
8896;DHT22;4484;48.928;10.066;2023-04-30T06:51:42;12.30;99.90
8896;DHT22;4484;48.928;10.066;2023-04-30T06:54:09;12.50;99.90
8896;DHT22;4484;48.928;10.066;2023-04-30T06:56:36;12.70;99.90
8896;DHT22;4484;48.928;10.066;2023-04-30T06:59:03;13.00;99.90
8896;DHT22;4484;48.928;10.066;2023-04-30T07:01:30;13.10;99.90
8896;DHT22;4484;48.928;10.066;2023-04-30T07:03:57;13.40;99.90
8896;DHT22;4484;48.928;10.066;2023-04-30T07:06:24;13.60;99.90
8896;DHT22;4484;48.928;10.066;2023-04-30T07:08:51;13.70;99.90
8896;DHT22;4484;48.928;10.066;2023-04-30T07:11:18;13.80;99.90
8896;DHT22;4484;48.928;10.066;2023-04-30T07:13:44;13.90;99.90
8896;DHT22;4484;48.928;10.066;2023-04-30T07:16:11;13.80;99.90
8896;DHT22;4484;48.928;10.066;2023-04-30T07:18:38;13.50;99.90
8896;DHT22;4484;48.928;10.066;2023-04-30T07:21:06;13.40;99.90
8896;DHT22;4484;48.928;10.066;2023-04-30T07:23:34;13.40;99.90
8896;DHT22;4484;48.928;10.066;2023-04-30T07:26:01;13.30;99.90
8896;DHT22;4484;48.928;10.066;2023-04-30T07:28:27;13.50;99.90
8896;DHT22;4484;48.928;10.066;2023-04-30T07:30:54;13.80;99.90
8896;DHT22;4484;48.928;10.066;2023-04-30T07:33:21;13.80;99.90
8896;DHT22;4484;48.928;10.066;2023-04-30T07:35:48;14.20;99.90
8896;DHT22;4484;48.928;10.066;2023-04-30T07:38:14;14.40;99.90
8896;DHT22;4484;48.928;10.066;2023-04-30T07:40:42;14.50;99.90
8896;DHT22;4484;48.928;10.066;2023-04-30T07:43:09;14.70;99.90
8896;DHT22;4484;48.928;10.066;2023-04-30T07:45:37;14.80;99.90
8896;DHT22;4484;48.928;10.066;2023-04-30T07:48:04;14.80;99.90
8896;DHT22;4484;48.928;10.066;2023-04-30T07:50:31;14.90;99.90
8896;DHT22;4484;48.928;10.066;2023-04-30T07:53:01;15.00;99.90
8896;DHT22;4484;48.928;10.066;2023-04-30T07:55:28;15.00;99.90
8896;DHT22;4484;48.928;10.066;2023-04-30T07:57:55;14.80;99.90
8896;DHT22;4484;48.928;10.066;2023-04-30T08:00:21;14.40;99.90
8896;DHT22;4484;48.928;10.066;2023-04-30T08:02:48;14.30;99.90
8896;DHT22;4484;48.928;10.066;2023-04-30T08:05:16;14.10;99.90
8896;DHT22;4484;48.928;10.066;2023-04-30T08:07:43;13.90;99.90
8896;DHT22;4484;48.928;10.066;2023-04-30T08:10:10;13.80;99.90
8896;DHT22;4484;48.928;10.066;2023-04-30T08:12:37;13.70;99.90
8896;DHT22;4484;48.928;10.066;2023-04-30T08:15:05;13.60;99.90
8896;DHT22;4484;48.928;10.066;2023-04-30T08:17:33;13.50;99.90
8896;DHT22;4484;48.928;10.066;2023-04-30T08:20:01;13.40;99.90
8896;DHT22;4484;48.928;10.066;2023-04-30T08:22:28;13.60;99.90
8896;DHT22;4484;48.928;10.066;2023-04-30T08:24:55;13.60;99.90
8896;DHT22;4484;48.928;10.066;2023-04-30T08:27:22;13.70;99.90
8896;DHT22;4484;48.928;10.066;2023-04-30T08:29:49;13.70;99.90
8896;DHT22;4484;48.928;10.066;2023-04-30T08:32:18;13.80;99.90
8896;DHT22;4484;48.928;10.066;2023-04-30T08:34:45;14.00;99.90
8896;DHT22;4484;48.928;10.066;2023-04-30T08:37:12;13.80;99.90
8896;DHT22;4484;48.928;10.066;2023-04-30T08:39:38;13.90;99.90
8896;DHT22;4484;48.928;10.066;2023-04-30T08:42:08;14.00;99.90
8896;DHT22;4484;48.928;10.066;2023-04-30T08:44:36;14.10;99.90
8896;DHT22;4484;48.928;10.066;2023-04-30T08:47:06;14.20;99.90
8896;DHT22;4484;48.928;10.066;2023-04-30T08:49:34;14.60;99.90
8896;DHT22;4484;48.928;10.066;2023-04-30T08:52:02;14.90;99.90
8896;DHT22;4484;48.928;10.066;2023-04-30T08:54:30;14.90;99.90
8896;DHT22;4484;48.928;10.066;2023-04-30T08:56:58;14.90;99.90
8896;DHT22;4484;48.928;10.066;2023-04-30T08:59:24;15.00;99.90
8896;DHT22;4484;48.928;10.066;2023-04-30T09:01:51;15.10;99.90
8896;DHT22;4484;48.928;10.066;2023-04-30T09:04:19;15.50;99.90
8896;DHT22;4484;48.928;10.066;2023-04-30T09:06:46;15.60;99.90
8896;DHT22;4484;48.928;10.066;2023-04-30T09:09:14;15.70;99.90
8896;DHT22;4484;48.928;10.066;2023-04-30T09:11:42;15.80;99.90
8896;DHT22;4484;48.928;10.066;2023-04-30T09:14:09;15.90;99.90
8896;DHT22;4484;48.928;10.066;2023-04-30T09:16:50;15.90;99.90
8896;DHT22;4484;48.928;10.066;2023-04-30T09:19:29;16.20;99.90
8896;DHT22;4484;48.928;10.066;2023-04-30T09:21:56;16.70;99.90
8896;DHT22;4484;48.928;10.066;2023-04-30T09:24:23;16.90;99.90
8896;DHT22;4484;48.928;10.066;2023-04-30T09:26:52;16.80;99.90
8896;DHT22;4484;48.928;10.066;2023-04-30T09:29:19;16.90;99.90
8896;DHT22;4484;48.928;10.066;2023-04-30T09:31:46;16.90;99.90
8896;DHT22;4484;48.928;10.066;2023-04-30T09:34:13;16.80;99.90
8896;DHT22;4484;48.928;10.066;2023-04-30T09:36:53;17.00;99.90
8896;DHT22;4484;48.928;10.066;2023-04-30T09:39:20;17.10;99.90
8896;DHT22;4484;48.928;10.066;2023-04-30T09:41:49;17.00;99.90
8896;DHT22;4484;48.928;10.066;2023-04-30T09:44:28;16.80;99.90
8896;DHT22;4484;48.928;10.066;2023-04-30T09:46:58;16.50;99.90
8896;DHT22;4484;48.928;10.066;2023-04-30T09:49:25;16.50;99.90
8896;DHT22;4484;48.928;10.066;2023-04-30T09:51:58;16.60;99.90
8896;DHT22;4484;48.928;10.066;2023-04-30T09:54:29;16.70;99.90
8896;DHT22;4484;48.928;10.066;2023-04-30T09:56:58;16.60;99.90
8896;DHT22;4484;48.928;10.066;2023-04-30T09:59:29;16.60;99.90
8896;DHT22;4484;48.928;10.066;2023-04-30T10:02:04;16.80;99.90
8896;DHT22;4484;48.928;10.066;2023-04-30T10:04:36;16.90;99.90
8896;DHT22;4484;48.928;10.066;2023-04-30T10:07:15;16.90;99.90
8896;DHT22;4484;48.928;10.066;2023-04-30T10:09:50;16.90;99.90
8896;DHT22;4484;48.928;10.066;2023-04-30T10:12:43;16.70;99.90
8896;DHT22;4484;48.928;10.066;2023-04-30T10:15:20;16.50;99.90
8896;DHT22;4484;48.928;10.066;2023-04-30T10:17:56;16.40;99.90
8896;DHT22;4484;48.928;10.066;2023-04-30T10:20:25;16.40;99.90
8896;DHT22;4484;48.928;10.066;2023-04-30T10:22:52;16.30;99.90
8896;DHT22;4484;48.928;10.066;2023-04-30T10:25:20;16.20;99.90
8896;DHT22;4484;48.928;10.066;2023-04-30T10:27:48;15.90;99.90
8896;DHT22;4484;48.928;10.066;2023-04-30T10:30:17;15.70;99.90
8896;DHT22;4484;48.928;10.066;2023-04-30T10:33:26;15.70;99.90
8896;DHT22;4484;48.928;10.066;2023-04-30T10:36:03;15.80;99.90
8896;DHT22;4484;48.928;10.066;2023-04-30T10:38:32;15.90;99.90
8896;DHT22;4484;48.928;10.066;2023-04-30T10:41:00;16.20;99.90
8896;DHT22;4484;48.928;10.066;2023-04-30T10:43:31;16.40;99.90
8896;DHT22;4484;48.928;10.066;2023-04-30T10:45:58;16.50;99.90
8896;DHT22;4484;48.928;10.066;2023-04-30T10:48:26;16.40;99.90
8896;DHT22;4484;48.928;10.066;2023-04-30T10:50:58;16.40;99.90
8896;DHT22;4484;48.928;10.066;2023-04-30T10:53:26;16.30;99.80
8896;DHT22;4484;48.928;10.066;2023-04-30T10:56:03;16.20;99.90
8896;DHT22;4484;48.928;10.066;2023-04-30T10:58:36;16.30;99.40
8896;DHT22;4484;48.928;10.066;2023-04-30T11:01:12;16.20;99.90
8896;DHT22;4484;48.928;10.066;2023-04-30T11:03:42;16.10;98.60
8896;DHT22;4484;48.928;10.066;2023-04-30T11:07:30;15.90;97.80
8896;DHT22;4484;48.928;10.066;2023-04-30T11:09:42;15.80;99.90
8896;DHT22;4484;48.928;10.066;2023-04-30T11:12:14;15.50;99.90
8896;DHT22;4484;48.928;10.066;2023-04-30T11:14:45;15.50;99.90
8896;DHT22;4484;48.928;10.066;2023-04-30T11:17:20;15.70;99.90
8896;DHT22;4484;48.928;10.066;2023-04-30T11:19:49;16.10;99.90
8896;DHT22;4484;48.928;10.066;2023-04-30T11:22:17;16.60;99.90
8896;DHT22;4484;48.928;10.066;2023-04-30T11:27:31;16.60;98.60
8896;DHT22;4484;48.928;10.066;2023-04-30T11:30:00;16.60;98.90
8896;DHT22;4484;48.928;10.066;2023-04-30T11:32:35;16.70;97.10
8896;DHT22;4484;48.928;10.066;2023-04-30T11:35:04;16.80;97.40
8896;DHT22;4484;48.928;10.066;2023-04-30T11:37:33;17.30;98.60
8896;DHT22;4484;48.928;10.066;2023-04-30T11:40:02;17.90;93.40
8896;DHT22;4484;48.928;10.066;2023-04-30T11:42:29;18.40;96.30
8896;DHT22;4484;48.928;10.066;2023-04-30T11:45:08;18.20;92.10
8896;DHT22;4484;48.928;10.066;2023-04-30T11:47:46;18.10;91.10
8896;DHT22;4484;48.928;10.066;2023-04-30T11:50:21;17.90;91.10
8896;DHT22;4484;48.928;10.066;2023-04-30T11:52:56;17.80;93.00
8896;DHT22;4484;48.928;10.066;2023-04-30T11:55:24;17.80;92.70
8896;DHT22;4484;48.928;10.066;2023-04-30T11:57:54;17.60;91.30
8896;DHT22;4484;48.928;10.066;2023-04-30T12:00:27;17.60;91.40
8896;DHT22;4484;48.928;10.066;2023-04-30T12:02:55;17.60;93.70
8896;DHT22;4484;48.928;10.066;2023-04-30T12:05:24;17.80;98.10
8896;DHT22;4484;48.928;10.066;2023-04-30T12:07:56;18.20;93.30
8896;DHT22;4484;48.928;10.066;2023-04-30T12:10:25;18.10;90.20
8896;DHT22;4484;48.928;10.066;2023-04-30T12:12:52;17.90;92.10
8896;DHT22;4484;48.928;10.066;2023-04-30T12:15:23;17.70;92.80
8896;DHT22;4484;48.928;10.066;2023-04-30T12:17:56;17.50;92.30
8896;DHT22;4484;48.928;10.066;2023-04-30T12:20:28;17.50;95.70
8896;DHT22;4484;48.928;10.066;2023-04-30T12:22:55;17.50;90.60
8896;DHT22;4484;48.928;10.066;2023-04-30T12:25:23;17.60;89.60
8896;DHT22;4484;48.928;10.066;2023-04-30T12:27:53;17.50;90.70
8896;DHT22;4484;48.928;10.066;2023-04-30T12:30:22;17.70;91.40
8896;DHT22;4484;48.928;10.066;2023-04-30T12:32:51;17.60;90.00
8896;DHT22;4484;48.928;10.066;2023-04-30T12:35:20;17.80;90.20
8896;DHT22;4484;48.928;10.066;2023-04-30T12:37:49;17.70;89.80
8896;DHT22;4484;48.928;10.066;2023-04-30T12:40:19;17.60;91.00
8896;DHT22;4484;48.928;10.066;2023-04-30T12:42:46;17.60;91.80
8896;DHT22;4484;48.928;10.066;2023-04-30T12:48:13;17.40;92.20
8896;DHT22;4484;48.928;10.066;2023-04-30T12:50:41;17.40;92.40
8896;DHT22;4484;48.928;10.066;2023-04-30T12:53:08;17.50;92.40
8896;DHT22;4484;48.928;10.066;2023-04-30T12:55:35;17.60;91.30
8896;DHT22;4484;48.928;10.066;2023-04-30T12:58:12;17.40;91.20
8896;DHT22;4484;48.928;10.066;2023-04-30T13:00:48;17.00;92.00
8896;DHT22;4484;48.928;10.066;2023-04-30T13:03:20;16.70;92.60
8896;DHT22;4484;48.928;10.066;2023-04-30T13:05:49;16.40;92.70
8896;DHT22;4484;48.928;10.066;2023-04-30T13:08:17;16.30;93.00
8896;DHT22;4484;48.928;10.066;2023-04-30T13:10:45;16.50;94.80
8896;DHT22;4484;48.928;10.066;2023-04-30T13:13:14;16.90;93.30
8896;DHT22;4484;48.928;10.066;2023-04-30T13:15:42;17.30;90.90
8896;DHT22;4484;48.928;10.066;2023-04-30T13:18:09;17.70;92.90
8896;DHT22;4484;48.928;10.066;2023-04-30T13:20:36;18.00;93.10
8896;DHT22;4484;48.928;10.066;2023-04-30T13:23:04;18.50;92.70
8896;DHT22;4484;48.928;10.066;2023-04-30T13:25:33;18.60;90.60
8896;DHT22;4484;48.928;10.066;2023-04-30T13:28:00;18.60;90.50
8896;DHT22;4484;48.928;10.066;2023-04-30T13:30:27;18.30;88.90
8896;DHT22;4484;48.928;10.066;2023-04-30T13:32:54;18.10;89.80
8896;DHT22;4484;48.928;10.066;2023-04-30T13:35:21;17.90;91.10
8896;DHT22;4484;48.928;10.066;2023-04-30T13:37:48;17.90;91.90
8896;DHT22;4484;48.928;10.066;2023-04-30T13:40:18;18.30;93.10
8896;DHT22;4484;48.928;10.066;2023-04-30T13:42:46;18.50;93.50
8896;DHT22;4484;48.928;10.066;2023-04-30T13:45:14;18.80;91.60
8896;DHT22;4484;48.928;10.066;2023-04-30T13:47:41;18.90;88.60
8896;DHT22;4484;48.928;10.066;2023-04-30T13:50:09;18.80;86.60
8896;DHT22;4484;48.928;10.066;2023-04-30T13:52:35;18.80;88.50
8896;DHT22;4484;48.928;10.066;2023-04-30T13:55:03;18.50;87.70
8896;DHT22;4484;48.928;10.066;2023-04-30T13:57:31;18.00;87.70
8896;DHT22;4484;48.928;10.066;2023-04-30T13:59:58;17.70;89.80
8896;DHT22;4484;48.928;10.066;2023-04-30T14:02:26;17.60;91.60
8896;DHT22;4484;48.928;10.066;2023-04-30T14:04:54;17.70;95.20
8896;DHT22;4484;48.928;10.066;2023-04-30T14:07:31;18.10;92.50
8896;DHT22;4484;48.928;10.066;2023-04-30T14:09:58;18.10;90.80
8896;DHT22;4484;48.928;10.066;2023-04-30T14:12:25;18.10;89.90
8896;DHT22;4484;48.928;10.066;2023-04-30T14:14:52;18.20;90.30
8896;DHT22;4484;48.928;10.066;2023-04-30T14:17:18;17.90;90.30
8896;DHT22;4484;48.928;10.066;2023-04-30T14:19:46;17.80;91.00
8896;DHT22;4484;48.928;10.066;2023-04-30T14:22:13;17.60;90.80
8896;DHT22;4484;48.928;10.066;2023-04-30T14:24:40;17.40;91.20
8896;DHT22;4484;48.928;10.066;2023-04-30T14:27:06;17.10;91.20
8896;DHT22;4484;48.928;10.066;2023-04-30T14:29:33;17.00;91.50
8896;DHT22;4484;48.928;10.066;2023-04-30T14:32:00;17.00;91.10
8896;DHT22;4484;48.928;10.066;2023-04-30T14:34:27;17.20;91.20
8896;DHT22;4484;48.928;10.066;2023-04-30T14:36:54;17.30;91.30
8896;DHT22;4484;48.928;10.066;2023-04-30T14:39:24;17.40;90.80
8896;DHT22;4484;48.928;10.066;2023-04-30T14:41:52;17.70;91.40
8896;DHT22;4484;48.928;10.066;2023-04-30T14:44:21;17.90;91.50
8896;DHT22;4484;48.928;10.066;2023-04-30T14:46:49;17.90;89.90
8896;DHT22;4484;48.928;10.066;2023-04-30T14:49:16;17.70;91.40
8896;DHT22;4484;48.928;10.066;2023-04-30T14:51:43;18.00;91.90
8896;DHT22;4484;48.928;10.066;2023-04-30T14:54:10;18.00;89.60
8896;DHT22;4484;48.928;10.066;2023-04-30T14:56:37;17.70;89.50
8896;DHT22;4484;48.928;10.066;2023-04-30T14:59:04;17.60;88.50
8896;DHT22;4484;48.928;10.066;2023-04-30T15:01:31;17.50;90.70
8896;DHT22;4484;48.928;10.066;2023-04-30T15:03:58;17.60;92.30
8896;DHT22;4484;48.928;10.066;2023-04-30T15:06:25;17.70;91.40
8896;DHT22;4484;48.928;10.066;2023-04-30T15:08:53;17.90;93.80
8896;DHT22;4484;48.928;10.066;2023-04-30T15:11:19;17.80;86.00
8896;DHT22;4484;48.928;10.066;2023-04-30T15:13:46;17.50;86.50
8896;DHT22;4484;48.928;10.066;2023-04-30T15:16:13;17.40;88.50
8896;DHT22;4484;48.928;10.066;2023-04-30T15:18:40;17.40;88.50
8896;DHT22;4484;48.928;10.066;2023-04-30T15:21:07;17.40;90.30
8896;DHT22;4484;48.928;10.066;2023-04-30T15:23:34;17.30;89.40
8896;DHT22;4484;48.928;10.066;2023-04-30T15:26:01;17.20;89.30
8896;DHT22;4484;48.928;10.066;2023-04-30T15:28:30;17.20;90.50
8896;DHT22;4484;48.928;10.066;2023-04-30T15:30:58;17.10;90.40
8896;DHT22;4484;48.928;10.066;2023-04-30T15:33:26;17.10;91.10
8896;DHT22;4484;48.928;10.066;2023-04-30T15:35:54;17.10;90.00
8896;DHT22;4484;48.928;10.066;2023-04-30T15:38:21;16.90;90.40
8896;DHT22;4484;48.928;10.066;2023-04-30T15:40:48;17.00;90.90
8896;DHT22;4484;48.928;10.066;2023-04-30T15:43:14;17.00;90.40
8896;DHT22;4484;48.928;10.066;2023-04-30T15:45:42;16.80;88.10
8896;DHT22;4484;48.928;10.066;2023-04-30T15:48:11;16.60;90.10
8896;DHT22;4484;48.928;10.066;2023-04-30T15:50:38;16.60;91.00
8896;DHT22;4484;48.928;10.066;2023-04-30T15:53:05;16.60;91.40
8896;DHT22;4484;48.928;10.066;2023-04-30T15:55:31;16.50;90.80
8896;DHT22;4484;48.928;10.066;2023-04-30T15:57:58;16.30;91.30
8896;DHT22;4484;48.928;10.066;2023-04-30T16:00:25;16.40;92.10
8896;DHT22;4484;48.928;10.066;2023-04-30T16:02:52;16.30;91.60
8896;DHT22;4484;48.928;10.066;2023-04-30T16:05:20;16.40;92.50
8896;DHT22;4484;48.928;10.066;2023-04-30T16:07:47;16.50;92.10
8896;DHT22;4484;48.928;10.066;2023-04-30T16:10:14;16.40;90.40
8896;DHT22;4484;48.928;10.066;2023-04-30T16:12:40;16.30;90.10
8896;DHT22;4484;48.928;10.066;2023-04-30T16:15:08;16.30;90.30